Time;durP1;ratioP1;P1;durP2;ratioP2;P2;SDS_P1;SDS_P2;PMS_P1;PMS_P2;Temp;Humidity;BMP_temperature;BMP_pressure;BME280_temperature;BME280_humidity;BME280_pressure;Samples;Min_cycle;Max_cycle;Signal;HPM_P1;HPM_P2
2023/08/14 00:02:10;;;;;;;0.10;0.10;;;15.00;54.70;;;;;;5073374;28;20207;-59
2023/08/14 00:04:41;;;;;;;0.10;0.10;;;15.00;54.70;;;;;;5073322;28;20195;-59
2023/08/14 00:07:13;;;;;;;0.10;0.10;;;15.10;54.70;;;;;;5073164;28;20272;-59
2023/08/14 00:09:44;;;;;;;0.10;0.10;;;15.10;54.70;;;;;;5072883;28;20198;-59
2023/08/14 00:12:20;;;;;;;0.08;0.08;;;15.10;54.60;;;;;;5072662;28;20222;-59
2023/08/14 00:14:51;;;;;;;0.10;0.10;;;15.10;54.60;;;;;;5072530;28;20203;-62
2023/08/14 00:17:22;;;;;;;0.10;0.10;;;15.10;54.60;;;;;;5073060;28;20225;-60
2023/08/14 00:19:52;;;;;;;0.03;0.03;;;15.20;54.60;;;;;;5073238;28;20191;-61
2023/08/14 00:22:25;;;;;;;0.10;0.10;;;15.20;54.60;;;;;;5072919;28;20646;-58
2023/08/14 00:24:55;;;;;;;0.08;0.08;;;15.20;54.60;;;;;;5072719;28;20198;-59
2023/08/14 00:27:26;;;;;;;0.05;0.05;;;15.20;54.60;;;;;;5071953;28;20600;-60
2023/08/14 00:29:57;;;;;;;0.10;0.10;;;15.20;54.60;;;;;;5070104;28;20280;-59
2023/08/14 00:32:28;;;;;;;0.03;0.03;;;15.30;54.60;;;;;;5072547;28;20276;-58
2023/08/14 00:34:58;;;;;;;0.10;0.10;;;15.30;54.60;;;;;;5072813;28;20191;-59
2023/08/14 00:37:43;;;;;;;0.10;0.10;;;15.30;54.60;;;;;;5073244;28;20481;-59
2023/08/14 00:40:15;;;;;;;0.10;0.10;;;15.30;54.60;;;;;;5072894;28;20634;-59
2023/08/14 00:42:47;;;;;;;0.00;0.00;;;15.30;54.50;;;;;;5072704;28;20195;-59
2023/08/14 00:45:18;;;;;;;0.10;0.10;;;15.30;54.50;;;;;;5072615;28;20249;-61
2023/08/14 00:47:49;;;;;;;0.10;0.10;;;15.30;54.50;;;;;;5072473;28;20757;-60
2023/08/14 00:50:21;;;;;;;0.10;0.10;;;15.30;54.50;;;;;;5072291;28;20809;-62
2023/08/14 00:52:57;;;;;;;0.10;0.10;;;15.40;54.50;;;;;;5072205;28;20202;-59
2023/08/14 00:55:29;;;;;;;0.10;0.10;;;15.50;54.50;;;;;;5072483;28;20240;-59
2023/08/14 00:58:00;;;;;;;0.10;0.10;;;15.50;54.50;;;;;;5072281;28;20717;-61
2023/08/14 01:00:31;;;;;;;0.00;0.00;;;15.50;54.40;;;;;;5072190;28;20589;-59
2023/08/14 01:03:01;;;;;;;0.10;0.10;;;15.50;54.40;;;;;;5072251;28;20207;-59
2023/08/14 01:05:33;;;;;;;0.10;0.10;;;15.50;54.40;;;;;;5072193;28;20298;-59
2023/08/14 01:08:05;;;;;;;0.08;0.08;;;15.50;54.40;;;;;;5072117;28;20238;-59
2023/08/14 01:10:48;;;;;;;0.10;0.10;;;15.60;54.40;;;;;;5072028;28;20233;-60
2023/08/14 01:13:28;;;;;;;0.00;0.00;;;15.60;54.50;;;;;;5072538;28;20499;-62
2023/08/14 01:16:00;;;;;;;0.05;0.05;;;15.60;54.40;;;;;;5071658;28;20191;-62
2023/08/14 01:18:31;;;;;;;0.10;0.10;;;15.60;54.30;;;;;;5071588;28;20194;-61
2023/08/14 01:21:15;;;;;;;0.10;0.10;;;15.60;54.40;;;;;;5071929;28;20693;-61
2023/08/14 01:23:59;;;;;;;0.10;0.10;;;15.60;54.30;;;;;;5071821;28;20198;-59
2023/08/14 01:26:33;;;;;;;0.10;0.10;;;15.70;54.30;;;;;;5070999;28;20690;-62
2023/08/14 01:29:03;;;;;;;0.10;0.10;;;15.70;54.30;;;;;;5071919;28;20198;-61
2023/08/14 01:31:34;;;;;;;0.10;0.10;;;15.70;54.30;;;;;;5071648;28;20230;-59
2023/08/14 01:34:05;;;;;;;0.10;0.10;;;15.80;54.40;;;;;;5072101;28;20209;-60
2023/08/14 01:36:41;;;;;;;0.10;0.10;;;15.80;54.30;;;;;;5072048;28;20230;-60
2023/08/14 01:39:13;;;;;;;0.10;0.10;;;15.80;54.30;;;;;;5071888;28;20229;-60
2023/08/14 01:41:51;;;;;;;0.10;0.10;;;15.80;54.30;;;;;;5071872;28;20617;-61
2023/08/14 01:44:25;;;;;;;0.00;0.00;;;15.80;54.30;;;;;;5071726;28;20209;-60
2023/08/14 01:46:59;;;;;;;0.10;0.10;;;15.80;54.30;;;;;;5071184;28;20221;-60
2023/08/14 01:49:32;;;;;;;0.10;0.10;;;15.90;54.30;;;;;;5071379;28;20206;-60
2023/08/14 01:52:05;;;;;;;0.10;0.10;;;15.90;54.30;;;;;;5071433;28;20218;-60
2023/08/14 01:54:35;;;;;;;0.10;0.10;;;15.90;54.20;;;;;;5071563;28;20615;-59
2023/08/14 01:57:08;;;;;;;0.10;0.10;;;15.90;54.10;;;;;;5071880;28;20712;-60
2023/08/14 01:59:44;;;;;;;0.10;0.10;;;15.90;54.10;;;;;;5071348;28;20704;-60
2023/08/14 02:02:16;;;;;;;0.00;0.00;;;16.00;54.20;;;;;;5070796;28;20187;-60
2023/08/14 02:04:46;;;;;;;0.10;0.10;;;16.00;54.20;;;;;;5071527;28;20205;-59
2023/08/14 02:07:17;;;;;;;0.00;0.00;;;16.00;54.20;;;;;;5070856;28;20644;-59
2023/08/14 02:09:47;;;;;;;0.10;0.10;;;16.00;54.20;;;;;;5071166;28;20198;-62
2023/08/14 02:12:20;;;;;;;0.10;0.10;;;16.00;54.20;;;;;;5071182;28;20230;-59
2023/08/14 02:14:51;;;;;;;0.10;0.10;;;16.10;54.10;;;;;;5071220;28;20194;-61
2023/08/14 02:17:21;;;;;;;0.03;0.03;;;16.10;54.10;;;;;;5071431;28;20217;-62
2023/08/14 02:19:52;;;;;;;0.00;0.00;;;16.10;54.10;;;;;;5071134;28;20203;-61
2023/08/14 02:22:23;;;;;;;0.10;0.10;;;16.10;54.10;;;;;;5070854;28;20191;-59
2023/08/14 02:24:53;;;;;;;0.10;0.10;;;16.20;54.20;;;;;;5071503;28;20195;-59
2023/08/14 02:27:26;;;;;;;0.00;0.00;;;16.20;54.30;;;;;;5071044;28;20219;-59
2023/08/14 02:29:56;;;;;;;0.08;0.08;;;16.20;54.30;;;;;;5071147;28;20210;-60
2023/08/14 02:32:27;;;;;;;0.10;0.10;;;16.20;54.30;;;;;;5070852;28;20230;-59
2023/08/14 02:34:58;;;;;;;0.10;0.10;;;16.30;54.30;;;;;;5071124;28;20198;-59
2023/08/14 02:37:28;;;;;;;0.00;0.00;;;16.30;54.30;;;;;;5071244;28;20592;-59
2023/08/14 02:39:59;;;;;;;0.00;0.00;;;16.30;54.30;;;;;;5074464;28;20195;-61
2023/08/14 02:42:31;;;;;;;0.00;0.00;;;16.40;54.40;;;;;;5075148;28;20591;-60
2023/08/14 02:45:02;;;;;;;0.10;0.10;;;16.40;54.40;;;;;;5074984;28;20657;-60
2023/08/14 02:47:33;;;;;;;0.10;0.10;;;16.40;54.40;;;;;;5074260;28;20330;-63
2023/08/14 02:50:03;;;;;;;0.10;0.10;;;16.50;54.40;;;;;;5074680;28;20194;-61
2023/08/14 02:52:34;;;;;;;0.10;0.10;;;16.50;54.40;;;;;;5074703;28;20226;-60
2023/08/14 02:55:05;;;;;;;0.00;0.00;;;16.50;54.40;;;;;;5054684;28;20195;-60
2023/08/14 02:57:37;;;;;;;0.03;0.03;;;16.50;54.40;;;;;;5054502;28;20219;-59
2023/08/14 03:00:09;;;;;;;0.10;0.10;;;16.60;54.40;;;;;;5054689;28;20207;-61
2023/08/14 03:02:40;;;;;;;0.05;0.05;;;16.60;54.40;;;;;;5054513;28;20200;-60
2023/08/14 03:05:11;;;;;;;0.00;0.00;;;16.60;54.40;;;;;;5054465;28;20195;-59
2023/08/14 03:07:41;;;;;;;0.10;0.10;;;16.70;54.50;;;;;;5054428;28;20687;-59
2023/08/14 03:10:12;;;;;;;0.10;0.10;;;16.70;54.50;;;;;;5054410;28;20282;-60
2023/08/14 03:12:44;;;;;;;0.00;0.00;;;16.80;54.50;;;;;;5054441;28;20714;-61
2023/08/14 03:15:15;;;;;;;0.10;0.10;;;16.80;54.50;;;;;;5054434;28;20195;-59
2023/08/14 03:17:46;;;;;;;0.00;0.00;;;16.80;54.50;;;;;;5054621;28;20277;-62
2023/08/14 03:20:17;;;;;;;0.00;0.00;;;16.90;54.50;;;;;;5054039;28;20286;-62
2023/08/14 03:22:48;;;;;;;0.03;0.03;;;16.90;54.50;;;;;;5058904;28;20210;-59
2023/08/14 03:25:18;;;;;;;0.10;0.10;;;16.90;54.40;;;;;;5074030;28;20583;-60
2023/08/14 03:27:51;;;;;;;0.00;0.00;;;17.00;54.50;;;;;;5074425;28;20223;-59
2023/08/14 03:30:22;;;;;;;0.10;0.10;;;17.00;54.40;;;;;;5074619;28;20202;-63
2023/08/14 03:32:52;;;;;;;0.10;0.10;;;17.00;54.40;;;;;;5073949;28;20708;-60
2023/08/14 03:35:23;;;;;;;0.10;0.10;;;17.10;54.40;;;;;;5074228;28;20198;-58
2023/08/14 03:37:53;;;;;;;0.00;0.00;;;17.10;54.30;;;;;;5074017;28;20222;-59
2023/08/14 03:40:24;;;;;;;0.00;0.00;;;17.10;54.20;;;;;;5074096;28;20198;-59
2023/08/14 03:42:57;;;;;;;0.00;0.00;;;17.20;54.20;;;;;;5073629;28;20666;-60
2023/08/14 03:45:27;;;;;;;0.00;0.00;;;17.20;54.10;;;;;;5073466;28;20281;-60
2023/08/14 03:47:58;;;;;;;0.10;0.10;;;17.20;54.00;;;;;;5073107;28;20226;-61
2023/08/14 03:50:29;;;;;;;0.00;0.00;;;17.20;54.00;;;;;;5072451;28;20202;-61
2023/08/14 03:52:59;;;;;;;0.10;0.10;;;17.30;54.00;;;;;;5072990;28;20333;-62
2023/08/14 03:55:30;;;;;;;0.10;0.10;;;17.30;54.00;;;;;;5073092;28;20202;-59
2023/08/14 03:58:02;;;;;;;0.10;0.10;;;17.30;54.00;;;;;;5073450;28;20215;-62
2023/08/14 04:00:33;;;;;;;0.10;0.10;;;17.30;54.00;;;;;;5073229;28;20198;-59
2023/08/14 04:03:04;;;;;;;0.00;0.00;;;17.40;54.10;;;;;;5072959;28;20199;-59
2023/08/14 04:05:38;;;;;;;0.10;0.10;;;17.40;54.00;;;;;;5073303;28;20289;-60
2023/08/14 04:08:09;;;;;;;0.03;0.03;;;17.40;53.90;;;;;;5073249;28;20215;-59
2023/08/14 04:10:40;;;;;;;0.10;0.10;;;17.40;53.90;;;;;;5073319;28;20195;-62
2023/08/14 04:13:12;;;;;;;0.00;0.00;;;17.50;53.90;;;;;;5072592;28;20230;-59
2023/08/14 04:15:43;;;;;;;0.10;0.10;;;17.50;53.90;;;;;;5073574;28;20194;-61
2023/08/14 04:18:13;;;;;;;0.10;0.10;;;17.50;53.90;;;;;;5072956;28;20651;-59
2023/08/14 04:20:44;;;;;;;0.00;0.00;;;17.50;53.80;;;;;;5073063;28;20203;-62
2023/08/14 04:23:15;;;;;;;0.00;0.00;;;17.60;53.80;;;;;;5073022;28;20651;-60
2023/08/14 04:25:45;;;;;;;0.10;0.10;;;17.60;53.70;;;;;;5072383;28;20195;-60
2023/08/14 04:28:18;;;;;;;0.05;0.05;;;17.60;53.60;;;;;;5072938;28;20205;-61
2023/08/14 04:30:49;;;;;;;0.10;0.10;;;17.60;53.60;;;;;;5073401;28;20203;-59
2023/08/14 04:33:19;;;;;;;0.00;0.00;;;17.70;53.60;;;;;;5073082;28;20313;-59
2023/08/14 04:35:50;;;;;;;0.00;0.00;;;17.70;53.60;;;;;;5072475;28;20183;-62
2023/08/14 04:38:21;;;;;;;0.00;0.00;;;17.70;53.50;;;;;;5072902;28;20199;-59
2023/08/14 04:40:51;;;;;;;0.10;0.10;;;17.70;53.40;;;;;;5072781;28;20569;-62
2023/08/14 04:43:24;;;;;;;0.10;0.10;;;17.80;53.50;;;;;;5072480;28;20281;-59
2023/08/14 04:45:54;;;;;;;0.10;0.10;;;17.80;53.40;;;;;;5072529;28;20199;-59
2023/08/14 04:48:25;;;;;;;0.10;0.10;;;17.80;53.30;;;;;;5072065;28;20199;-59
2023/08/14 04:50:56;;;;;;;0.10;0.10;;;17.80;53.20;;;;;;5072517;28;20190;-61
2023/08/14 04:53:26;;;;;;;0.00;0.00;;;17.80;53.50;;;;;;5068173;28;20571;-61
2023/08/14 04:55:57;;;;;;;0.00;0.00;;;17.90;53.90;;;;;;5052315;28;20333;-59
2023/08/14 04:58:29;;;;;;;0.10;0.10;;;17.90;53.80;;;;;;5052006;28;20200;-59
2023/08/14 05:01:00;;;;;;;0.10;0.10;;;17.90;53.50;;;;;;5052109;28;20213;-60
2023/08/14 05:03:30;;;;;;;0.10;0.10;;;17.90;53.40;;;;;;5052217;28;20678;-59
2023/08/14 05:06:01;;;;;;;0.00;0.00;;;18.00;53.50;;;;;;5052290;28;20199;-60
2023/08/14 05:08:32;;;;;;;0.00;0.00;;;18.00;53.40;;;;;;5052036;28;20199;-60
2023/08/14 05:11:02;;;;;;;0.00;0.00;;;18.00;53.40;;;;;;5052143;28;20191;-60
2023/08/14 05:13:35;;;;;;;0.10;0.10;;;18.00;53.50;;;;;;5051941;28;20219;-59
2023/08/14 05:16:06;;;;;;;0.00;0.00;;;18.00;53.50;;;;;;5052498;28;20603;-59
2023/08/14 05:18:36;;;;;;;0.10;0.10;;;18.00;53.50;;;;;;5051500;28;20222;-59
2023/08/14 05:21:07;;;;;;;0.10;0.10;;;18.00;53.40;;;;;;5071014;28;20198;-60
2023/08/14 05:23:37;;;;;;;0.00;0.00;;;18.00;53.30;;;;;;5072142;28;20206;-61
2023/08/14 05:26:08;;;;;;;0.00;0.00;;;18.00;53.20;;;;;;5071893;28;20211;-62
2023/08/14 05:28:40;;;;;;;0.10;0.10;;;18.00;53.20;;;;;;5071315;28;20194;-59
2023/08/14 05:31:11;;;;;;;0.00;0.00;;;18.00;53.10;;;;;;5071944;28;20195;-62
2023/08/14 05:33:42;;;;;;;0.10;0.10;;;18.00;53.10;;;;;;5071394;28;20690;-59
2023/08/14 05:36:12;;;;;;;0.10;0.10;;;18.00;53.10;;;;;;5071446;28;20276;-61
2023/08/14 05:38:43;;;;;;;0.08;0.08;;;18.00;53.10;;;;;;5069090;28;20202;-63
2023/08/14 05:41:14;;;;;;;0.10;0.10;;;18.00;53.00;;;;;;5071272;28;20195;-60
2023/08/14 05:43:48;;;;;;;0.00;0.00;;;18.00;53.00;;;;;;5067361;28;20195;-61
2023/08/14 05:46:19;;;;;;;0.00;0.00;;;18.00;52.80;;;;;;5067626;28;20295;-60
2023/08/14 05:48:49;;;;;;;0.00;0.00;;;17.90;52.80;;;;;;5070854;28;20199;-60
2023/08/14 05:51:20;;;;;;;0.10;0.10;;;17.90;52.70;;;;;;5071626;28;20198;-60
2023/08/14 05:53:51;;;;;;;0.00;0.00;;;17.90;52.70;;;;;;5071503;28;20234;-61
2023/08/14 05:56:21;;;;;;;0.00;0.00;;;17.90;52.70;;;;;;5070500;28;20678;-60
2023/08/14 05:58:57;;;;;;;0.05;0.05;;;17.90;52.70;;;;;;5070019;28;20197;-61
2023/08/14 06:01:28;;;;;;;0.10;0.10;;;17.90;52.70;;;;;;5067558;28;20198;-62
2023/08/14 06:03:59;;;;;;;0.00;0.00;;;17.80;52.60;;;;;;5071465;28;20245;-62
2023/08/14 06:06:29;;;;;;;0.10;0.10;;;17.80;52.60;;;;;;5069328;28;20222;-59
2023/08/14 06:09:00;;;;;;;0.10;0.10;;;17.80;52.60;;;;;;5069682;28;20582;-60
2023/08/14 06:11:30;;;;;;;0.00;0.00;;;17.80;52.60;;;;;;5070481;28;20202;-61
2023/08/14 06:14:03;;;;;;;0.10;0.10;;;17.80;52.60;;;;;;5071560;28;20280;-59
2023/08/14 06:16:34;;;;;;;0.00;0.00;;;17.70;52.60;;;;;;5075425;28;20210;-59
2023/08/14 06:19:04;;;;;;;0.00;0.00;;;17.70;52.60;;;;;;5073099;28;20191;-62
2023/08/14 06:21:35;;;;;;;0.03;0.03;;;17.70;52.60;;;;;;5074619;28;20495;-61
2023/08/14 06:24:06;;;;;;;0.10;0.10;;;17.70;52.60;;;;;;5074653;28;20202;-60
2023/08/14 06:26:36;;;;;;;0.00;0.00;;;17.70;52.50;;;;;;5074854;28;20214;-60
2023/08/14 06:29:09;;;;;;;0.10;0.10;;;17.70;52.50;;;;;;5073482;28;20191;-60
2023/08/14 06:31:40;;;;;;;0.10;0.10;;;17.60;52.40;;;;;;5074084;28;20704;-60
2023/08/14 06:34:10;;;;;;;0.10;0.10;;;17.60;52.40;;;;;;5074097;28;20242;-60
2023/08/14 06:36:41;;;;;;;0.03;0.03;;;17.60;52.30;;;;;;5073850;28;20213;-61
2023/08/14 06:39:12;;;;;;;0.10;0.10;;;17.60;52.30;;;;;;5073359;28;20657;-60
2023/08/14 06:41:42;;;;;;;0.00;0.00;;;17.50;52.20;;;;;;5074314;28;20191;-59
2023/08/14 06:44:15;;;;;;;0.00;0.00;;;17.50;52.20;;;;;;5074274;28;20555;-60
2023/08/14 06:46:46;;;;;;;0.00;0.00;;;17.50;52.10;;;;;;5074235;28;20222;-59
2023/08/14 06:49:16;;;;;;;0.10;0.10;;;17.50;52.20;;;;;;5073305;28;20569;-59
2023/08/14 06:51:47;;;;;;;0.03;0.03;;;17.50;52.20;;;;;;5074200;28;20201;-61
2023/08/14 06:54:17;;;;;;;0.08;0.08;;;17.40;52.20;;;;;;5074893;28;20231;-61
2023/08/14 06:56:48;;;;;;;0.00;0.00;;;17.40;52.20;;;;;;5074092;28;20607;-61
2023/08/14 06:59:21;;;;;;;0.10;0.10;;;17.40;52.30;;;;;;5073625;28;20199;-61
2023/08/14 07:01:51;;;;;;;0.10;0.10;;;17.40;52.20;;;;;;5073628;28;20230;-61
2023/08/14 07:04:22;;;;;;;0.10;0.10;;;17.40;52.30;;;;;;5073245;28;20201;-59
2023/08/14 07:06:52;;;;;;;0.00;0.00;;;17.30;52.20;;;;;;5073629;28;20615;-61
2023/08/14 07:09:23;;;;;;;0.00;0.00;;;17.30;52.20;;;;;;5073490;28;20199;-60
2023/08/14 07:11:54;;;;;;;0.10;0.10;;;17.30;52.20;;;;;;5073487;28;20199;-62
2023/08/14 07:14:26;;;;;;;0.10;0.10;;;17.30;52.10;;;;;;5082739;28;20697;-62
2023/08/14 07:16:57;;;;;;;0.00;0.00;;;17.30;52.10;;;;;;5094063;28;20669;-60
2023/08/14 07:19:28;;;;;;;0.00;0.00;;;17.30;52.10;;;;;;5094138;28;20194;-61
2023/08/14 07:21:58;;;;;;;0.05;0.05;;;17.20;52.00;;;;;;5094393;28;20194;-60
2023/08/14 07:24:29;;;;;;;0.00;0.00;;;17.20;52.10;;;;;;5077217;28;20203;-59
2023/08/14 07:26:59;;;;;;;0.10;0.10;;;17.20;52.10;;;;;;5074040;28;20215;-61
2023/08/14 07:29:32;;;;;;;0.10;0.10;;;17.20;52.10;;;;;;5073749;28;20202;-59
2023/08/14 07:32:02;;;;;;;0.00;0.00;;;17.10;52.00;;;;;;5074298;28;20199;-60
2023/08/14 07:34:33;;;;;;;0.08;0.08;;;17.10;52.00;;;;;;5072950;28;20218;-60
2023/08/14 07:37:04;;;;;;;0.03;0.03;;;17.10;52.00;;;;;;5073453;28;20440;-60
2023/08/14 07:39:34;;;;;;;0.10;0.10;;;17.10;52.10;;;;;;5073429;28;20191;-61
2023/08/14 07:42:05;;;;;;;0.05;0.05;;;17.10;52.10;;;;;;5073224;28;20198;-60
2023/08/14 07:44:37;;;;;;;0.10;0.10;;;17.10;52.70;;;;;;5073009;28;20205;-60
2023/08/14 07:47:08;;;;;;;0.10;0.10;;;17.10;52.10;;;;;;5073409;28;20233;-59
2023/08/14 07:49:39;;;;;;;0.00;0.00;;;17.00;52.00;;;;;;5073237;28;20191;-60
2023/08/14 07:52:10;;;;;;;0.10;0.10;;;17.00;52.00;;;;;;5073598;28;20680;-61
2023/08/14 07:54:41;;;;;;;0.05;0.05;;;17.00;52.00;;;;;;5073558;28;20269;-60
2023/08/14 07:57:11;;;;;;;0.10;0.10;;;17.00;52.00;;;;;;5072751;28;20215;-59
2023/08/14 07:59:44;;;;;;;0.10;0.10;;;17.00;52.00;;;;;;5073151;28;20198;-59
2023/08/14 08:02:14;;;;;;;0.10;0.10;;;16.90;51.90;;;;;;5073090;28;20195;-61
2023/08/14 08:04:45;;;;;;;0.00;0.00;;;16.90;51.90;;;;;;5073286;28;20203;-59
2023/08/14 08:07:16;;;;;;;0.10;0.10;;;16.90;51.90;;;;;;5073320;28;20234;-60
2023/08/14 08:09:46;;;;;;;0.00;0.00;;;16.90;51.90;;;;;;5073127;28;20191;-59
2023/08/14 08:12:17;;;;;;;0.00;0.00;;;16.90;52.00;;;;;;5065600;28;20669;-59
2023/08/14 08:14:49;;;;;;;0.00;0.00;;;16.80;51.90;;;;;;5072934;28;20222;-59
2023/08/14 08:17:20;;;;;;;0.10;0.10;;;16.80;51.90;;;;;;5073376;28;20215;-60
2023/08/14 08:19:51;;;;;;;0.00;0.00;;;16.80;51.90;;;;;;5072717;28;20199;-61
2023/08/14 08:22:22;;;;;;;0.10;0.10;;;16.80;51.90;;;;;;5072527;28;20195;-60
2023/08/14 08:24:52;;;;;;;0.00;0.00;;;16.80;52.00;;;;;;5072690;28;20676;-60
2023/08/14 08:27:23;;;;;;;0.10;0.10;;;16.70;52.00;;;;;;5072360;28;20214;-45
2023/08/14 08:29:56;;;;;;;0.10;0.10;;;16.70;52.00;;;;;;5073011;28;20194;-61
2023/08/14 08:32:26;;;;;;;0.08;0.08;;;16.70;50.80;;;;;;5071898;28;20208;-60
2023/08/14 08:34:57;;;;;;;0.00;0.00;;;16.60;50.00;;;;;;5072113;28;20235;-58
2023/08/14 08:37:27;;;;;;;0.10;0.10;;;16.60;49.80;;;;;;5072396;28;20590;-59
2023/08/14 08:39:58;;;;;;;0.10;0.10;;;16.60;49.80;;;;;;5072807;28;20793;-59
2023/08/14 08:42:30;;;;;;;0.00;0.00;;;16.50;49.90;;;;;;5066605;28;20202;-59
2023/08/14 08:45:06;;;;;;;0.00;0.00;;;16.50;50.10;;;;;;5071370;28;20203;-59
2023/08/14 08:47:40;;;;;;;0.10;0.10;;;16.50;50.30;;;;;;5071284;28;20297;-59
2023/08/14 08:50:11;;;;;;;0.10;0.10;;;16.50;50.40;;;;;;5070964;28;20205;-60
2023/08/14 08:52:42;;;;;;;0.10;0.10;;;16.40;50.40;;;;;;5072196;28;20683;-61
2023/08/14 08:55:14;;;;;;;0.10;0.10;;;16.40;50.50;;;;;;5072355;28;20683;-61
2023/08/14 08:57:45;;;;;;;0.03;0.03;;;16.40;50.50;;;;;;5070910;28;20269;-60
2023/08/14 09:00:18;;;;;;;0.00;0.00;;;16.40;50.60;;;;;;5072144;28;20552;-60
2023/08/14 09:02:50;;;;;;;0.00;0.00;;;16.40;50.70;;;;;;5070271;28;20620;-60
2023/08/14 09:05:20;;;;;;;0.10;0.10;;;16.40;50.70;;;;;;5071402;28;20216;-59
2023/08/14 09:07:51;;;;;;;0.10;0.10;;;16.40;50.80;;;;;;5071084;28;20206;-59
2023/08/14 09:10:22;;;;;;;0.10;0.10;;;16.40;50.90;;;;;;5071824;28;20226;-60
2023/08/14 09:12:53;;;;;;;0.05;0.05;;;16.30;50.90;;;;;;5071380;28;20198;-59
2023/08/14 09:15:26;;;;;;;0.10;0.10;;;16.30;51.00;;;;;;5071477;28;20191;-59
2023/08/14 09:17:57;;;;;;;0.00;0.00;;;16.30;50.90;;;;;;5070616;28;20246;-59
2023/08/14 09:20:28;;;;;;;0.00;0.00;;;16.30;51.00;;;;;;5071415;28;20210;-58
2023/08/14 09:23:01;;;;;;;0.10;0.10;;;16.30;51.00;;;;;;5070593;28;20195;-58
2023/08/14 09:25:32;;;;;;;0.00;0.00;;;16.30;51.00;;;;;;5070481;28;20195;-59
2023/08/14 09:28:04;;;;;;;0.03;0.03;;;16.30;51.00;;;;;;5071252;28;20679;-59
2023/08/14 09:30:38;;;;;;;0.00;0.00;;;16.20;51.00;;;;;;5070951;28;20248;-59
2023/08/14 09:33:11;;;;;;;0.00;0.00;;;16.20;51.00;;;;;;5071025;28;20229;-60
2023/08/14 09:35:42;;;;;;;0.10;0.10;;;16.20;51.10;;;;;;5066557;28;20192;-59
2023/08/14 09:38:15;;;;;;;0.05;0.05;;;16.20;51.10;;;;;;5050487;28;20215;-58
2023/08/14 09:40:46;;;;;;;0.10;0.10;;;16.20;51.10;;;;;;5051046;28;20488;-60
2023/08/14 09:43:17;;;;;;;0.10;0.10;;;16.20;51.10;;;;;;5050618;28;20199;-59
2023/08/14 09:45:50;;;;;;;0.00;0.00;;;16.10;51.10;;;;;;5060786;28;20658;-59
2023/08/14 09:48:21;;;;;;;0.00;0.00;;;16.10;51.10;;;;;;5069669;28;20205;-59
2023/08/14 09:50:55;;;;;;;0.10;0.10;;;16.10;51.10;;;;;;5071415;28;20203;-60
2023/08/14 09:53:25;;;;;;;0.10;0.10;;;16.10;51.20;;;;;;5070303;28;20253;-60
2023/08/14 09:55:56;;;;;;;0.00;0.00;;;16.10;51.20;;;;;;5071306;28;20195;-60
2023/08/14 09:58:27;;;;;;;0.10;0.10;;;16.10;51.30;;;;;;5070604;28;20224;-60
2023/08/14 10:01:00;;;;;;;0.05;0.05;;;16.00;51.30;;;;;;5070761;28;20195;-60
2023/08/14 10:03:31;;;;;;;0.10;0.10;;;16.00;51.30;;;;;;5070237;28;20592;-59
2023/08/14 10:06:03;;;;;;;0.10;0.10;;;16.00;51.20;;;;;;5070899;28;20217;-59
2023/08/14 10:08:36;;;;;;;0.10;0.10;;;16.00;51.30;;;;;;5070716;28;20199;-59
2023/08/14 10:11:07;;;;;;;0.08;0.08;;;16.00;51.30;;;;;;5070835;28;20225;-61
2023/08/14 10:13:44;;;;;;;0.10;0.10;;;16.00;51.30;;;;;;5070187;28;20579;-60
2023/08/14 10:16:23;;;;;;;0.10;0.10;;;16.00;51.40;;;;;;5070385;28;20250;-60
2023/08/14 10:19:00;;;;;;;0.10;0.10;;;16.00;51.40;;;;;;5071029;28;20191;-58
2023/08/14 10:21:34;;;;;;;0.10;0.10;;;16.00;51.30;;;;;;5070688;28;20243;-60
2023/08/14 10:24:05;;;;;;;0.10;0.10;;;16.00;51.40;;;;;;5069599;28;20207;-59
2023/08/14 10:26:37;;;;;;;0.10;0.10;;;15.90;51.40;;;;;;5070811;28;20215;-60
2023/08/14 10:29:09;;;;;;;0.10;0.10;;;15.90;51.40;;;;;;5070618;28;20198;-59
2023/08/14 10:31:42;;;;;;;0.10;0.10;;;15.90;51.50;;;;;;5070905;28;20191;-61
2023/08/14 10:34:12;;;;;;;0.10;0.10;;;15.90;51.50;;;;;;5070631;28;20249;-59
2023/08/14 10:36:43;;;;;;;0.10;0.10;;;15.90;51.50;;;;;;5070255;28;20728;-59
2023/08/14 10:39:15;;;;;;;0.00;0.00;;;15.90;51.50;;;;;;5070184;28;20641;-60
2023/08/14 10:41:46;;;;;;;0.10;0.10;;;15.90;51.50;;;;;;5070106;28;20187;-60
2023/08/14 10:44:16;;;;;;;0.10;0.10;;;15.90;51.50;;;;;;5069724;28;20654;-60
2023/08/14 10:46:49;;;;;;;0.10;0.10;;;15.80;51.50;;;;;;5070275;28;20261;-60
2023/08/14 10:49:20;;;;;;;0.08;0.08;;;15.80;51.50;;;;;;5070321;28;20206;-60
2023/08/14 10:51:51;;;;;;;0.10;0.10;;;15.80;51.50;;;;;;5069440;28;20203;-60
2023/08/14 10:54:24;;;;;;;0.00;0.00;;;15.80;51.50;;;;;;5070342;28;20226;-60
2023/08/14 10:57:01;;;;;;;0.08;0.08;;;15.80;51.50;;;;;;5070108;28;20679;-59
2023/08/14 10:59:31;;;;;;;0.10;0.10;;;15.80;51.60;;;;;;5072630;28;20198;-60
2023/08/14 11:02:18;;;;;;;0.00;0.00;;;15.80;51.60;;;;;;5073468;28;20191;-60
2023/08/14 11:05:16;;;;;;;0.10;0.10;;;15.80;51.60;;;;;;5074096;28;20195;-59
2023/08/14 11:07:59;;;;;;;0.00;0.00;;;15.70;51.60;;;;;;5072343;28;20306;-60
2023/08/14 11:10:31;;;;;;;0.10;0.10;;;15.70;51.60;;;;;;5074050;28;20190;-60
2023/08/14 11:13:01;;;;;;;0.10;0.10;;;15.70;51.60;;;;;;5073055;28;20209;-59
2023/08/14 11:15:34;;;;;;;0.10;0.10;;;15.70;51.60;;;;;;5074341;28;20296;-59
2023/08/14 11:18:09;;;;;;;0.10;0.10;;;15.70;51.70;;;;;;5073954;28;20215;-61
2023/08/14 11:20:42;;;;;;;0.10;0.10;;;15.70;51.70;;;;;;5074485;28;20654;-60
2023/08/14 11:23:13;;;;;;;0.10;0.10;;;15.70;51.70;;;;;;5074340;28;20657;-61
2023/08/14 11:25:43;;;;;;;0.10;0.10;;;15.70;51.70;;;;;;5074263;28;20202;-59
2023/08/14 11:28:14;;;;;;;0.10;0.10;;;15.60;51.70;;;;;;5074292;28;20264;-59
2023/08/14 11:30:45;;;;;;;0.10;0.10;;;15.60;51.70;;;;;;5074296;28;20608;-60
2023/08/14 11:33:17;;;;;;;0.08;0.08;;;15.70;51.70;;;;;;5074008;28;20199;-59
2023/08/14 11:35:49;;;;;;;0.10;0.10;;;15.60;51.70;;;;;;5054325;28;20226;-60
2023/08/14 11:38:22;;;;;;;0.10;0.10;;;15.60;51.80;;;;;;5054196;28;20203;-60
2023/08/14 11:40:52;;;;;;;0.10;0.10;;;15.60;51.80;;;;;;5053968;28;20203;-61
2023/08/14 11:43:23;;;;;;;0.10;0.10;;;15.60;51.70;;;;;;5054097;28;20191;-59
2023/08/14 11:45:54;;;;;;;0.10;0.10;;;15.60;51.70;;;;;;5053895;28;20200;-59
2023/08/14 11:48:27;;;;;;;0.10;0.10;;;15.60;51.80;;;;;;5053308;28;20280;-59
2023/08/14 11:50:58;;;;;;;0.10;0.10;;;15.60;51.80;;;;;;5071462;28;20676;-59
2023/08/14 11:53:29;;;;;;;0.00;0.00;;;15.60;51.80;;;;;;5073550;28;20663;-58
2023/08/14 11:56:00;;;;;;;0.10;0.10;;;15.60;51.80;;;;;;5072896;28;20215;-59
2023/08/14 11:58:32;;;;;;;0.10;0.10;;;15.60;51.80;;;;;;5073665;28;20621;-60
2023/08/14 12:01:03;;;;;;;0.10;0.10;;;15.60;51.80;;;;;;5073472;28;20198;-59
2023/08/14 12:03:35;;;;;;;0.00;0.00;;;15.50;51.80;;;;;;5073559;28;20729;-60
2023/08/14 12:06:07;;;;;;;0.10;0.10;;;15.50;51.80;;;;;;5073499;28;20256;-61
2023/08/14 12:08:40;;;;;;;0.10;0.10;;;15.50;51.80;;;;;;5073452;28;20658;-61
2023/08/14 12:11:11;;;;;;;0.10;0.10;;;15.50;51.80;;;;;;5072690;28;20198;-59
2023/08/14 12:13:41;;;;;;;0.10;0.10;;;15.50;51.80;;;;;;5073336;28;20205;-59
2023/08/14 12:16:12;;;;;;;0.08;0.08;;;15.50;51.80;;;;;;5073196;28;20283;-59
2023/08/14 12:18:46;;;;;;;0.10;0.10;;;15.50;51.80;;;;;;5072745;28;20217;-59
2023/08/14 12:21:17;;;;;;;0.10;0.10;;;15.50;51.80;;;;;;5073605;28;20199;-60
2023/08/14 12:23:51;;;;;;;0.10;0.10;;;15.40;51.80;;;;;;5072823;28;20222;-59
2023/08/14 12:26:22;;;;;;;0.10;0.10;;;15.40;51.80;;;;;;5073054;28;20218;-59
2023/08/14 12:28:53;;;;;;;0.10;0.10;;;15.50;51.80;;;;;;5073230;28;20199;-58
2023/08/14 12:31:23;;;;;;;0.03;0.03;;;15.40;51.80;;;;;;5073024;28;20204;-59
2023/08/14 12:33:56;;;;;;;0.10;0.10;;;15.40;51.80;;;;;;5072504;28;20706;-59
2023/08/14 12:36:26;;;;;;;0.10;0.10;;;15.40;51.80;;;;;;5070233;28;20215;-59
2023/08/14 12:38:57;;;;;;;0.10;0.10;;;15.40;51.90;;;;;;5052611;28;20207;-60
2023/08/14 12:41:28;;;;;;;0.00;0.00;;;15.40;51.80;;;;;;5052882;28;20678;-61
2023/08/14 12:43:58;;;;;;;0.00;0.00;;;15.40;51.80;;;;;;5052885;28;20199;-60
2023/08/14 12:46:29;;;;;;;0.10;0.10;;;15.40;51.80;;;;;;5052629;28;20216;-58
2023/08/14 12:49:02;;;;;;;0.10;0.10;;;15.40;51.80;;;;;;5052614;28;20207;-58
2023/08/14 12:51:33;;;;;;;0.10;0.10;;;15.40;51.90;;;;;;5053099;28;20245;-59
2023/08/14 12:54:04;;;;;;;0.10;0.10;;;15.30;51.80;;;;;;5065017;28;20202;-59
2023/08/14 12:56:36;;;;;;;0.10;0.10;;;15.30;51.80;;;;;;5072414;28;20573;-59
2023/08/14 12:59:07;;;;;;;0.10;0.10;;;15.30;51.80;;;;;;5072062;28;20194;-61
2023/08/14 13:01:38;;;;;;;0.10;0.10;;;15.30;51.80;;;;;;5072087;28;20197;-60
2023/08/14 13:04:11;;;;;;;0.10;0.10;;;15.30;51.90;;;;;;5072183;28;20241;-59
2023/08/14 13:06:42;;;;;;;0.10;0.10;;;15.30;51.90;;;;;;5072293;28;20230;-61
2023/08/14 13:09:12;;;;;;;0.00;0.00;;;15.30;51.90;;;;;;5072392;28;20651;-59
2023/08/14 13:11:43;;;;;;;0.10;0.10;;;15.30;51.90;;;;;;5072320;28;20230;-60